Terminal Aerodrome Forecast
Issued by NWS

Home | Current Version | Previous Version | Text Only | Print | Product List | Glossary On
Versions: 1 2 3 4 5 6 7 8 9 10 11 12 13 14 15 16 17 18 19
665
FTUS43 KJKL 230939 AAA
TAFSME
TAF AMD
KSME 230939Z 2310/2406 07008KT P6SM VCSH OVC010
     FM231100 05009KT P6SM VCSH OVC015
     FM231400 05008KT 5SM SHRA OVC015
     FM232300 04008KT P6SM VCSH OVC015
     FM240300 04007KT P6SM OVC008=

USA.gov is the U.S. government's official web portal to all federal, state and local government web resources and services.